Time;durP1;ratioP1;P1;durP2;ratioP2;P2;SDS_P1;SDS_P2;PMS_P1;PMS_P2;Temp;Humidity;BMP_temperature;BMP_pressure;BME280_temperature;BME280_humidity;BME280_pressure;Samples;Min_cycle;Max_cycle;Signal;HPM_P1;HPM_P2
2023/06/19 00:02:17;;;;;;;5.72;4.72;;;23.30;22.60;;;;;;5058848;28;20546;-79
2023/06/19 00:04:42;;;;;;;8.55;5.22;;;23.20;66.20;;;;;;5077003;28;20665;-79
2023/06/19 00:07:08;;;;;;;6.38;5.30;;;23.20;99.90;;;;;;5076419;28;20182;-79
2023/06/19 00:09:34;;;;;;;7.82;5.45;;;23.10;99.90;;;;;;5076962;28;20261;-79
2023/06/19 00:12:01;;;;;;;6.28;5.45;;;23.10;99.90;;;;;;5077139;28;20249;-79
2023/06/19 00:14:27;;;;;;;6.10;5.13;;;23.00;99.90;;;;;;5058220;28;20268;-79
2023/06/19 00:16:52;;;;;;;9.35;6.20;;;23.00;99.90;;;;;;5058296;28;20224;-79
2023/06/19 00:19:18;;;;;;;7.57;5.57;;;22.90;99.90;;;;;;5076329;28;20193;-79
2023/06/19 00:21:44;;;;;;;7.65;5.63;;;22.90;1.00;;;;;;5075989;28;20235;-79
2023/06/19 00:24:11;;;;;;;7.50;5.43;;;22.80;1.00;;;;;;5058169;28;20707;-79
2023/06/19 00:26:36;;;;;;;8.52;5.10;;;22.80;44.20;;;;;;5075948;28;20206;-79
2023/06/19 00:29:02;;;;;;;7.60;5.60;;;22.70;29.30;;;;;;5076726;28;20214;-80
2023/06/19 00:31:29;;;;;;;5.72;4.80;;;22.70;99.90;;;;;;5076936;28;20646;-79
2023/06/19 00:33:55;;;;;;;7.00;5.40;;;22.70;99.90;;;;;;5076908;28;20204;-80
2023/06/19 00:36:21;;;;;;;6.10;4.88;;;22.70;99.90;;;;;;5070290;28;20202;-79
2023/06/19 00:38:50;;;;;;;6.70;5.25;;;22.80;1.00;;;;;;5039396;28;20178;-79
2023/06/19 00:41:18;;;;;;;6.85;4.88;;;22.80;99.90;;;;;;5040207;28;20182;-80
2023/06/19 00:43:44;;;;;;;5.47;4.80;;;22.80;1.00;;;;;;5040546;28;20706;-78
2023/06/19 00:46:11;;;;;;;5.55;4.63;;;22.80;1.00;;;;;;5037725;28;20289;-79
2023/06/19 00:48:37;;;;;;;5.90;4.75;;;22.80;1.00;;;;;;5037731;28;20178;-79
2023/06/19 00:51:03;;;;;;;6.25;5.03;;;22.80;1.00;;;;;;5055851;28;20627;-79
2023/06/19 00:53:30;;;;;;;5.57;4.82;;;22.80;1.00;;;;;;5038290;28;20266;-79
2023/06/19 00:55:57;;;;;;;6.70;4.68;;;22.80;1.00;;;;;;5056214;28;20202;-79
2023/06/19 00:58:23;;;;;;;5.50;4.90;;;22.80;1.00;;;;;;5056887;28;20520;-79
2023/06/19 01:00:49;;;;;;;6.50;4.55;;;22.80;1.00;;;;;;5056157;28;20204;-79
2023/06/19 01:03:16;;;;;;;6.50;5.07;;;22.70;99.90;;;;;;5055048;28;20292;-79
2023/06/19 01:05:42;;;;;;;8.73;5.10;;;22.70;99.90;;;;;;5046458;28;20209;-79
2023/06/19 01:08:33;;;;;;;5.28;4.78;;;22.60;1.00;;;;;;5056542;28;20174;-79
2023/06/19 01:11:01;;;;;;;7.47;5.03;;;22.50;1.00;;;;;;5074356;28;20582;-79
2023/06/19 01:13:39;;;;;;;7.47;5.38;;;22.50;1.00;;;;;;5056302;28;20174;-79
2023/06/19 01:16:06;;;;;;;6.72;5.50;;;22.20;99.90;;;;;;5074222;28;20280;-79
2023/06/19 01:18:33;;;;;;;6.28;5.07;;;22.10;99.90;;;;;;5056392;28;20292;-79
2023/06/19 01:21:19;;;;;;;6.63;4.85;;;22.10;1.00;;;;;;5056360;28;20189;-79
2023/06/19 01:23:45;;;;;;;6.38;5.20;;;22.00;1.00;;;;;;5056316;28;20272;-79
2023/06/19 01:26:11;;;;;;;8.90;5.78;;;21.90;71.60;;;;;;5056162;28;20303;-79
2023/06/19 01:28:40;;;;;;;6.18;5.40;;;21.80;1.00;;;;;;5056462;28;20178;-79
2023/06/19 01:31:20;;;;;;;5.60;4.78;;;21.80;1.00;;;;;;5074185;28;20184;-79
2023/06/19 01:33:49;;;;;;;6.22;5.05;;;21.80;1.00;;;;;;5056427;28;20173;-79
2023/06/19 01:36:17;;;;;;;7.28;5.60;;;21.80;99.90;;;;;;5074393;28;20220;-79
2023/06/19 01:38:45;;;;;;;7.82;5.50;;;21.80;99.90;;;;;;5056463;28;20173;-79
2023/06/19 01:41:12;;;;;;;7.03;5.35;;;21.80;99.90;;;;;;5074698;28;20201;-79
2023/06/19 01:43:38;;;;;;;7.38;5.82;;;21.80;99.90;;;;;;5074750;28;20215;-79
2023/06/19 01:46:04;;;;;;;7.63;5.88;;;21.80;1.00;;;;;;5076982;28;20201;-79
2023/06/19 01:48:30;;;;;;;8.75;6.50;;;21.80;99.90;;;;;;5061033;28;20169;-79
2023/06/19 01:50:56;;;;;;;6.85;5.63;;;21.80;99.90;;;;;;5079355;28;20181;-79
2023/06/19 01:53:22;;;;;;;6.57;5.38;;;21.80;1.00;;;;;;5079789;28;20695;-80
2023/06/19 01:55:48;;;;;;;6.60;5.20;;;21.80;99.90;;;;;;5080290;28;20196;-80
2023/06/19 01:58:13;;;;;;;7.72;5.38;;;21.80;99.90;;;;;;5080295;28;20659;-80
2023/06/19 02:00:39;;;;;;;9.23;5.72;;;21.80;99.90;;;;;;5079752;28;20707;-80
2023/06/19 02:03:05;;;;;;;8.65;6.22;;;21.90;1.00;;;;;;5080297;28;20270;-79
2023/06/19 02:05:31;;;;;;;7.18;5.90;;;21.90;1.00;;;;;;5079748;28;20209;-79
2023/06/19 02:07:57;;;;;;;9.32;5.80;;;21.90;99.90;;;;;;5061448;28;20200;-79
2023/06/19 02:10:23;;;;;;;7.40;5.93;;;21.90;99.90;;;;;;5062484;28;20227;-79
2023/06/19 02:12:49;;;;;;;7.63;6.03;;;21.90;99.90;;;;;;5062616;28;20177;-79
2023/06/19 02:15:15;;;;;;;8.65;6.45;;;21.90;99.90;;;;;;5080584;28;20204;-79
2023/06/19 02:17:42;;;;;;;8.23;6.30;;;21.90;1.00;;;;;;5080214;28;20196;-80
2023/06/19 02:20:11;;;;;;;7.88;5.68;;;22.00;1.00;;;;;;5080302;28;20267;-79
2023/06/19 02:22:38;;;;;;;7.05;5.55;;;22.00;1.00;;;;;;5080046;28;20712;-80
2023/06/19 02:25:05;;;;;;;8.40;6.35;;;22.00;1.00;;;;;;5079880;28;20209;-79
2023/06/19 02:27:31;;;;;;;7.70;5.85;;;22.00;1.00;;;;;;5079832;28;20281;-80
2023/06/19 02:29:57;;;;;;;7.28;5.95;;;22.00;1.00;;;;;;5080108;28;20194;-79
2023/06/19 02:32:23;;;;;;;9.38;6.50;;;22.00;1.00;;;;;;5079186;28;20158;-79
2023/06/19 02:34:48;;;;;;;8.10;6.38;;;22.00;1.00;;;;;;5079363;28;20626;-79
2023/06/19 02:37:14;;;;;;;9.93;6.15;;;22.00;1.00;;;;;;5079219;28;20220;-80
2023/06/19 02:39:40;;;;;;;8.25;6.07;;;21.90;1.00;;;;;;5079102;28;20166;-79
2023/06/19 02:42:06;;;;;;;7.68;5.93;;;21.90;1.00;;;;;;5078869;28;20177;-79
2023/06/19 02:44:32;;;;;;;7.13;5.93;;;21.90;16.80;;;;;;5079016;28;20196;-79
2023/06/19 02:46:58;;;;;;;10.73;6.10;;;21.90;93.40;;;;;;5078292;28;20685;-79
2023/06/19 02:49:24;;;;;;;7.15;5.90;;;21.80;99.90;;;;;;5060271;28;20642;-79
2023/06/19 02:51:49;;;;;;;7.65;6.03;;;21.80;1.00;;;;;;5078522;28;20170;-79
2023/06/19 02:54:15;;;;;;;7.22;5.80;;;21.80;1.00;;;;;;5078618;28;20170;-79
2023/06/19 02:56:41;;;;;;;7.28;5.65;;;21.70;99.90;;;;;;5078060;28;20191;-80
2023/06/19 02:59:07;;;;;;;7.80;6.20;;;21.60;1.00;;;;;;5078229;28;20225;-80
2023/06/19 03:01:33;;;;;;;7.20;5.88;;;21.60;1.00;;;;;;5077990;28;20651;-79
2023/06/19 03:04:00;;;;;;;7.95;6.10;;;21.60;1.00;;;;;;5077696;28;20219;-79
2023/06/19 03:06:26;;;;;;;8.60;6.78;;;21.60;1.00;;;;;;5059521;28;20221;-79
2023/06/19 03:08:51;;;;;;;8.10;6.28;;;21.50;99.90;;;;;;5078139;28;20169;-79
2023/06/19 03:11:17;;;;;;;8.60;6.20;;;21.50;1.00;;;;;;5059688;28;20546;-79
2023/06/19 03:13:46;;;;;;;8.50;6.05;;;21.50;99.90;;;;;;5077271;28;20567;-78
2023/06/19 03:16:12;;;;;;;8.93;6.07;;;21.40;4.50;;;;;;5076916;28;20603;-79
2023/06/19 03:18:38;;;;;;;8.77;6.32;;;21.30;1.00;;;;;;5077196;28;20173;-79
2023/06/19 03:21:03;;;;;;;9.82;6.82;;;21.30;1.00;;;;;;5060432;28;20662;-79
2023/06/19 03:23:29;;;;;;;8.32;6.45;;;21.30;28.60;;;;;;5076728;28;20268;-79
2023/06/19 03:25:55;;;;;;;11.50;6.47;;;21.20;99.90;;;;;;5076701;28;20206;-79
2023/06/19 03:28:21;;;;;;;8.00;6.75;;;21.20;99.90;;;;;;5058750;28;20205;-79
2023/06/19 03:30:47;;;;;;;10.35;6.63;;;21.20;1.00;;;;;;5058545;28;20201;-79
2023/06/19 03:33:12;;;;;;;8.35;6.65;;;21.30;1.00;;;;;;5077100;28;20701;-79
2023/06/19 03:35:38;;;;;;;8.00;6.35;;;21.40;99.90;;;;;;5058452;28;20210;-78
2023/06/19 03:38:04;;;;;;;8.27;6.47;;;21.60;1.00;;;;;;5076827;28;20258;-79
2023/06/19 03:40:30;;;;;;;8.02;6.05;;;21.80;99.90;;;;;;5058798;28;20311;-79
2023/06/19 03:42:55;;;;;;;7.82;6.30;;;22.00;99.90;;;;;;5058447;28;20599;-79
2023/06/19 03:45:21;;;;;;;6.28;5.47;;;22.10;99.90;;;;;;5058195;28;20701;-79
2023/06/19 03:47:48;;;;;;;8.05;5.93;;;22.10;99.90;;;;;;5076523;28;20241;-79
2023/06/19 03:50:14;;;;;;;8.98;5.65;;;22.20;99.90;;;;;;5059199;28;20186;-79
2023/06/19 03:52:43;;;;;;;8.38;5.43;;;22.20;99.90;;;;;;5042419;28;20178;-78
2023/06/19 03:55:09;;;;;;;11.13;5.90;;;22.20;99.90;;;;;;5076178;28;20205;-79
2023/06/19 03:57:36;;;;;;;7.10;5.15;;;22.20;99.90;;;;;;5042236;28;20184;-78
2023/06/19 04:00:07;;;;;;;9.52;5.95;;;22.20;99.90;;;;;;5058451;28;20207;-79
2023/06/19 04:02:39;;;;;;;7.20;5.25;;;22.20;99.90;;;;;;5058088;28;20231;-78
2023/06/19 04:05:11;;;;;;;7.32;5.20;;;22.20;99.90;;;;;;5058260;28;20209;-79
2023/06/19 04:07:37;;;;;;;5.63;4.65;;;22.20;99.90;;;;;;5074326;28;20662;-79
2023/06/19 04:10:04;;;;;;;6.20;4.90;;;22.20;99.90;;;;;;5058426;28;20178;-79
2023/06/19 04:12:31;;;;;;;8.23;4.85;;;22.10;99.90;;;;;;5076674;28;20539;-79
2023/06/19 04:14:57;;;;;;;6.40;4.50;;;22.10;1.00;;;;;;5058667;28;20194;-79
2023/06/19 04:17:25;;;;;;;8.35;4.28;;;22.10;1.00;;;;;;5058578;28;20280;-78
2023/06/19 04:19:52;;;;;;;6.10;4.50;;;22.00;1.00;;;;;;5058644;28;20181;-79
2023/06/19 04:22:19;;;;;;;5.75;3.90;;;22.00;1.00;;;;;;5076270;28;20194;-79
2023/06/19 04:24:48;;;;;;;5.88;4.15;;;22.00;78.40;;;;;;5058634;28;20205;-78
2023/06/19 04:27:16;;;;;;;6.40;4.15;;;21.90;99.90;;;;;;5058850;28;20189;-79
2023/06/19 04:29:42;;;;;;;7.13;4.50;;;21.90;99.90;;;;;;5076637;28;20165;-79
2023/06/19 04:32:14;;;;;;;6.57;4.28;;;21.80;1.00;;;;;;5058298;28;20173;-78
2023/06/19 04:34:45;;;;;;;6.13;3.95;;;21.80;99.90;;;;;;5058373;28;20256;-79
2023/06/19 04:37:12;;;;;;;5.75;4.18;;;21.70;99.90;;;;;;5058620;28;20272;-78
2023/06/19 04:39:39;;;;;;;7.32;5.07;;;21.70;99.90;;;;;;5058573;28;20177;-78
2023/06/19 04:42:06;;;;;;;7.05;4.50;;;21.70;1.00;;;;;;5076606;28;20277;-78
2023/06/19 04:44:33;;;;;;;7.82;4.05;;;21.60;1.00;;;;;;5056881;28;20189;-78
2023/06/19 04:47:01;;;;;;;6.63;4.05;;;21.50;99.90;;;;;;5075413;28;20197;-75
2023/06/19 04:49:30;;;;;;;4.65;4.00;;;21.40;1.00;;;;;;5076647;28;20185;-76
2023/06/19 04:51:57;;;;;;;6.43;4.65;;;21.40;99.90;;;;;;5059127;28;20733;-76
2023/06/19 04:54:23;;;;;;;5.97;4.05;;;21.30;99.90;;;;;;5076750;28;20174;-77
2023/06/19 04:56:48;;;;;;;5.55;4.28;;;21.20;99.90;;;;;;5058447;28;20197;-76
2023/06/19 04:59:17;;;;;;;7.18;4.53;;;21.20;99.90;;;;;;5076122;28;20201;-77
2023/06/19 05:01:44;;;;;;;7.13;4.50;;;21.20;99.90;;;;;;5058330;28;20177;-76
2023/06/19 05:04:11;;;;;;;7.40;4.22;;;21.10;99.90;;;;;;5076098;28;20178;-76
2023/06/19 05:06:37;;;;;;;5.57;4.32;;;21.20;99.90;;;;;;5058189;28;20669;-77
2023/06/19 05:09:03;;;;;;;5.75;4.40;;;21.10;1.00;;;;;;5076629;28;20170;-76
2023/06/19 05:11:29;;;;;;;6.20;4.38;;;21.10;1.00;;;;;;5076885;28;20546;-76
2023/06/19 05:13:54;;;;;;;7.03;4.63;;;21.10;1.00;;;;;;5058983;28;20224;-76
2023/06/19 05:16:21;;;;;;;10.43;4.57;;;21.10;1.00;;;;;;5076404;28;20197;-76
2023/06/19 05:18:47;;;;;;;5.85;4.43;;;21.10;99.90;;;;;;5058129;28;20255;-76
2023/06/19 05:21:12;;;;;;;6.07;4.25;;;21.10;99.90;;;;;;5075497;28;20186;-75
2023/06/19 05:23:38;;;;;;;6.13;4.38;;;21.10;99.90;;;;;;5057809;28;20656;-76
2023/06/19 05:26:04;;;;;;;6.20;4.32;;;21.20;1.00;;;;;;5058227;28;20210;-77
2023/06/19 05:28:30;;;;;;;6.50;3.85;;;21.10;99.90;;;;;;5059719;28;20189;-76
2023/06/19 05:30:57;;;;;;;5.40;4.07;;;21.20;99.90;;;;;;5059204;28;20178;-77
2023/06/19 05:33:23;;;;;;;7.32;4.05;;;21.20;1.00;;;;;;5059213;28;20184;-75
2023/06/19 05:35:53;;;;;;;4.70;3.70;;;21.20;1.00;;;;;;5076355;28;20297;-76
2023/06/19 05:38:20;;;;;;;6.90;4.13;;;21.20;1.00;;;;;;5057975;28;20177;-75
2023/06/19 05:40:46;;;;;;;6.65;3.90;;;21.20;1.00;;;;;;5057385;28;20273;-75
2023/06/19 05:43:12;;;;;;;5.38;4.22;;;21.20;1.00;;;;;;5075724;28;20209;-75
2023/06/19 05:45:38;;;;;;;5.47;3.83;;;21.20;1.00;;;;;;5057580;28;20229;-75
2023/06/19 05:48:04;;;;;;;6.50;3.97;;;21.20;1.00;;;;;;5076437;28;20607;-75
2023/06/19 05:50:30;;;;;;;8.48;4.50;;;21.20;1.00;;;;;;5075841;28;20510;-78
2023/06/19 05:52:56;;;;;;;5.68;4.13;;;21.20;1.00;;;;;;5076283;28;20534;-76
2023/06/19 05:55:24;;;;;;;5.00;3.72;;;21.30;1.00;;;;;;5058785;28;20204;-75
2023/06/19 05:57:50;;;;;;;4.95;3.83;;;21.30;1.00;;;;;;5076315;28;20541;-75
2023/06/19 06:00:16;;;;;;;5.90;3.33;;;21.30;1.00;;;;;;5075322;28;20182;-75
2023/06/19 06:02:42;;;;;;;6.30;3.95;;;21.30;1.00;;;;;;5056984;28;20245;-76
2023/06/19 06:05:08;;;;;;;4.35;2.92;;;21.30;1.00;;;;;;5057102;28;20229;-75
2023/06/19 06:07:34;;;;;;;6.20;3.00;;;21.20;1.00;;;;;;5057261;28;20184;-76
2023/06/19 06:10:00;;;;;;;3.58;2.72;;;21.20;1.00;;;;;;5074669;28;20166;-77
2023/06/19 06:12:26;;;;;;;3.83;2.90;;;21.20;1.00;;;;;;5074946;28;20204;-75
2023/06/19 06:14:52;;;;;;;3.95;2.80;;;21.20;1.00;;;;;;5057947;28;20189;-76
2023/06/19 06:17:17;;;;;;;2.97;2.67;;;21.20;1.00;;;;;;5057760;28;20178;-75
2023/06/19 06:19:43;;;;;;;4.25;3.00;;;21.20;1.00;;;;;;5059102;28;20264;-76
2023/06/19 06:22:09;;;;;;;3.35;2.75;;;21.20;1.00;;;;;;5058323;28;20251;-76
2023/06/19 06:24:35;;;;;;;3.55;3.08;;;21.20;1.00;;;;;;5075148;28;20182;-76
2023/06/19 06:27:00;;;;;;;5.00;3.20;;;21.20;1.00;;;;;;5056484;28;20202;-75
2023/06/19 06:29:26;;;;;;;5.43;3.38;;;21.20;1.00;;;;;;5055320;28;20713;-76
2023/06/19 06:32:02;;;;;;;6.05;3.70;;;21.20;1.00;;;;;;5075253;28;20178;-76
2023/06/19 06:34:28;;;;;;;4.05;3.45;;;21.20;1.00;;;;;;5077191;28;20526;-76
2023/06/19 06:36:54;;;;;;;3.92;3.15;;;21.30;1.00;;;;;;5065306;28;20182;-76
2023/06/19 06:39:19;;;;;;;6.10;3.53;;;21.30;1.00;;;;;;5039215;28;20277;-76
2023/06/19 06:41:45;;;;;;;5.05;3.38;;;21.30;1.00;;;;;;5038921;28;20178;-76
2023/06/19 06:44:11;;;;;;;7.18;3.25;;;21.40;1.00;;;;;;5056835;28;20174;-76
2023/06/19 06:46:37;;;;;;;7.90;3.17;;;21.40;1.00;;;;;;5056576;28;20201;-77
2023/06/19 06:49:02;;;;;;;4.97;3.33;;;21.40;1.00;;;;;;5038654;28;20171;-76
2023/06/19 06:51:28;;;;;;;4.50;2.78;;;21.40;1.00;;;;;;5038635;28;20178;-76
2023/06/19 06:53:54;;;;;;;4.15;3.03;;;21.50;1.00;;;;;;5038599;28;20179;-75
2023/06/19 06:56:19;;;;;;;4.88;3.17;;;21.60;1.00;;;;;;5038437;28;20681;-75
2023/06/19 06:58:46;;;;;;;4.53;2.58;;;21.70;1.00;;;;;;5038583;28;20182;-75
2023/06/19 07:01:12;;;;;;;4.70;2.90;;;21.70;1.00;;;;;;5038505;28;20182;-75
2023/06/19 07:03:39;;;;;;;3.85;2.60;;;21.70;1.00;;;;;;5056124;28;20534;-75
2023/06/19 07:06:05;;;;;;;6.43;2.83;;;21.60;1.00;;;;;;5069178;28;20271;-75
2023/06/19 07:08:30;;;;;;;4.47;2.72;;;21.70;1.00;;;;;;5058149;28;20573;-75
2023/06/19 07:10:56;;;;;;;2.50;2.30;;;21.70;1.00;;;;;;5075906;28;20178;-76
2023/06/19 07:13:22;;;;;;;4.47;2.80;;;21.70;99.90;;;;;;5058115;28;20170;-75
2023/06/19 07:15:48;;;;;;;3.45;2.72;;;21.60;99.90;;;;;;5076011;28;20200;-76
2023/06/19 07:18:14;;;;;;;4.25;2.50;;;21.50;99.90;;;;;;5076149;28;20178;-75
2023/06/19 07:20:40;;;;;;;5.88;2.90;;;21.50;99.90;;;;;;5057995;28;20212;-75
2023/06/19 07:23:06;;;;;;;5.65;2.92;;;21.50;99.90;;;;;;5058144;28;20173;-76
2023/06/19 07:25:33;;;;;;;7.22;2.97;;;21.60;99.90;;;;;;5076003;28;20228;-75
2023/06/19 07:28:01;;;;;;;5.30;3.40;;;21.70;1.00;;;;;;5058031;28;20261;-76
2023/06/19 07:30:27;;;;;;;4.38;2.83;;;21.70;99.90;;;;;;5058006;28;20260;-76
2023/06/19 07:32:53;;;;;;;3.78;3.10;;;21.70;99.90;;;;;;5075865;28;20173;-75
2023/06/19 07:35:19;;;;;;;4.57;3.08;;;21.60;1.00;;;;;;5057471;28;20209;-76
2023/06/19 07:37:45;;;;;;;4.78;2.80;;;21.50;99.90;;;;;;5057927;28;20730;-76
2023/06/19 07:40:11;;;;;;;5.10;2.90;;;21.50;99.90;;;;;;5075806;28;20261;-76
2023/06/19 07:42:37;;;;;;;5.15;3.13;;;21.60;1.00;;;;;;5057005;28;20177;-76
2023/06/19 07:45:03;;;;;;;3.88;3.00;;;21.70;1.00;;;;;;5076031;28;20280;-76
2023/06/19 07:47:29;;;;;;;6.22;3.10;;;21.80;1.00;;;;;;5059810;28;20186;-75
2023/06/19 07:49:55;;;;;;;4.45;3.22;;;21.80;1.00;;;;;;5076417;28;20177;-75
2023/06/19 07:52:21;;;;;;;3.55;2.95;;;21.80;1.00;;;;;;5057916;28;20186;-75
2023/06/19 07:54:57;;;;;;;3.20;2.72;;;21.90;99.90;;;;;;5076162;28;20229;-76
2023/06/19 07:57:25;;;;;;;5.18;3.25;;;21.90;1.00;;;;;;5058258;28;20162;-75
2023/06/19 07:59:52;;;;;;;4.35;3.28;;;22.00;1.00;;;;;;5057858;28;20712;-75
2023/06/19 08:02:18;;;;;;;5.43;3.53;;;22.10;1.00;;;;;;5075369;28;20249;-75
2023/06/19 08:04:44;;;;;;;3.97;3.08;;;22.30;99.90;;;;;;5075110;28;20201;-76
2023/06/19 08:07:10;;;;;;;5.18;3.22;;;22.30;1.00;;;;;;5075176;28;20202;-75
2023/06/19 08:09:36;;;;;;;5.32;3.38;;;22.20;1.00;;;;;;5057224;28;20197;-77
2023/06/19 08:12:02;;;;;;;5.47;3.20;;;22.10;27.80;;;;;;5074996;28;20174;-76
2023/06/19 08:14:28;;;;;;;4.72;3.20;;;22.10;99.90;;;;;;5056930;28;20185;-77
2023/06/19 08:16:54;;;;;;;5.30;2.83;;;22.20;99.90;;;;;;5074658;28;20182;-76
2023/06/19 08:19:20;;;;;;;4.85;3.08;;;22.20;1.00;;;;;;5056968;28;20186;-76
2023/06/19 08:21:46;;;;;;;4.18;3.08;;;22.20;99.90;;;;;;5056627;28;20243;-76
2023/06/19 08:24:12;;;;;;;4.50;3.05;;;22.10;99.90;;;;;;5057001;28;20205;-78
2023/06/19 08:26:37;;;;;;;3.75;2.88;;;22.10;99.90;;;;;;5074965;28;20205;-76
2023/06/19 08:29:03;;;;;;;5.38;3.10;;;22.20;99.90;;;;;;5056910;28;20176;-77
2023/06/19 08:31:29;;;;;;;5.55;3.00;;;22.20;1.00;;;;;;5074589;28;20590;-77
2023/06/19 08:33:56;;;;;;;4.80;3.28;;;22.10;1.00;;;;;;5060105;28;20178;-78
2023/06/19 08:36:22;;;;;;;5.25;2.67;;;22.20;99.90;;;;;;5065466;28;20232;-76
2023/06/19 08:38:49;;;;;;;3.50;3.10;;;22.10;1.00;;;;;;5074821;28;20307;-76
2023/06/19 08:41:16;;;;;;;5.43;3.30;;;22.10;99.90;;;;;;5074562;28;20169;-78
2023/06/19 08:43:42;;;;;;;5.63;3.97;;;22.10;99.90;;;;;;5075763;28;20174;-78
2023/06/19 08:46:17;;;;;;;6.82;4.85;;;22.10;99.90;;;;;;5057434;28;20228;-79
2023/06/19 08:48:43;;;;;;;7.43;5.57;;;22.10;1.00;;;;;;5058072;28;20646;-78
2023/06/19 08:51:10;;;;;;;9.45;5.25;;;22.20;99.90;;;;;;5058800;28;20208;-78
2023/06/19 08:53:47;;;;;;;9.57;6.55;;;22.20;1.00;;;;;;5076884;28;20637;-79
2023/06/19 08:56:12;;;;;;;9.80;6.57;;;22.20;1.00;;;;;;5076625;28;20200;-79
2023/06/19 08:58:38;;;;;;;7.78;5.00;;;22.20;99.90;;;;;;5058448;28;20178;-79
2023/06/19 09:01:04;;;;;;;6.93;3.92;;;22.20;99.90;;;;;;5058680;28;20205;-78
2023/06/19 09:03:30;;;;;;;5.93;4.05;;;22.30;1.00;;;;;;5076405;28;20180;-79
2023/06/19 09:05:55;;;;;;;6.50;3.45;;;22.30;99.90;;;;;;5075742;28;20735;-79
2023/06/19 09:08:22;;;;;;;5.45;2.90;;;22.40;1.00;;;;;;5057962;28;20174;-79
2023/06/19 09:10:58;;;;;;;3.88;2.92;;;22.60;1.00;;;;;;5076252;28;20169;-79
2023/06/19 09:13:23;;;;;;;4.45;3.15;;;22.70;1.00;;;;;;5075959;28;20169;-79
2023/06/19 09:15:58;;;;;;;5.25;3.20;;;22.80;1.00;;;;;;5057579;28;20255;-78
2023/06/19 09:18:24;;;;;;;4.53;2.97;;;22.90;61.00;;;;;;5075911;28;20149;-79
2023/06/19 09:20:53;;;;;;;4.20;2.85;;;22.80;99.90;;;;;;5075729;28;20185;-79
2023/06/19 09:23:19;;;;;;;4.93;2.80;;;22.90;97.50;;;;;;5075220;28;20185;-79
2023/06/19 09:26:03;;;;;;;3.78;3.10;;;23.20;1.00;;;;;;5075853;28;20565;-79
2023/06/19 09:28:29;;;;;;;5.38;2.85;;;23.70;69.70;;;;;;5075308;28;20162;-78
2023/06/19 09:31:00;;;;;;;4.55;2.97;;;23.90;99.90;;;;;;5057026;28;20181;-78
2023/06/19 09:33:31;;;;;;;6.50;2.78;;;23.90;99.90;;;;;;5075117;28;20153;-79
2023/06/19 09:35:58;;;;;;;4.50;3.17;;;23.80;1.00;;;;;;5056658;28;20228;-78
2023/06/19 09:38:26;;;;;;;4.70;3.03;;;24.00;1.00;;;;;;5076455;28;20179;-80
2023/06/19 09:40:52;;;;;;;4.00;3.08;;;24.20;1.00;;;;;;5077120;28;20231;-79
2023/06/19 09:43:42;;;;;;;6.55;3.20;;;24.40;99.90;;;;;;5057892;28;20178;-79
2023/06/19 09:46:10;;;;;;;5.18;3.03;;;24.30;99.90;;;;;;5057923;28;20206;-80
2023/06/19 09:48:43;;;;;;;3.90;2.90;;;24.00;1.00;;;;;;5058847;28;20188;-79
2023/06/19 09:51:15;;;;;;;3.88;3.10;;;23.90;99.90;;;;;;5076615;28;20154;-80
2023/06/19 09:53:42;;;;;;;5.30;3.20;;;24.00;99.90;;;;;;5076464;28;20177;-80
2023/06/19 09:56:09;;;;;;;4.45;2.80;;;24.30;99.90;;;;;;5076858;28;20196;-78
2023/06/19 09:58:36;;;;;;;3.78;2.53;;;24.30;1.00;;;;;;5056957;28;20181;-78
2023/06/19 10:01:04;;;;;;;6.43;2.92;;;24.60;99.90;;;;;;5057065;28;20217;-78
2023/06/19 10:03:31;;;;;;;3.45;2.55;;;24.60;1.00;;;;;;5074462;28;20166;-78
2023/06/19 10:05:59;;;;;;;3.17;2.38;;;24.50;1.00;;;;;;5056971;28;20304;-78
2023/06/19 10:08:39;;;;;;;5.70;2.72;;;24.60;5.10;;;;;;5080283;28;20531;-80
2023/06/19 10:11:05;;;;;;;4.05;3.65;;;24.90;99.90;;;;;;5080859;28;20168;-79
2023/06/19 10:13:38;;;;;;;5.32;3.75;;;24.90;1.00;;;;;;5080261;28;20162;-79
2023/06/19 10:16:04;;;;;;;4.45;4.05;;;24.80;1.00;;;;;;5079578;28;20670;-78
2023/06/19 10:18:32;;;;;;;5.85;4.05;;;24.50;99.90;;;;;;5079056;28;20170;-80
2023/06/19 10:20:58;;;;;;;4.85;3.35;;;24.30;99.90;;;;;;5079242;28;20193;-79
2023/06/19 10:23:27;;;;;;;4.30;3.53;;;24.40;99.90;;;;;;5079300;28;20506;-79
2023/06/19 10:25:53;;;;;;;6.63;3.20;;;24.50;99.90;;;;;;5079070;28;20682;-80
2023/06/19 10:28:27;;;;;;;4.00;3.25;;;24.60;99.90;;;;;;5079183;28;20178;-80
2023/06/19 10:31:03;;;;;;;4.88;3.30;;;24.50;99.90;;;;;;5079003;28;20154;-79
2023/06/19 10:33:34;;;;;;;3.70;2.97;;;24.60;1.00;;;;;;5079248;28;20154;-79
2023/06/19 10:36:25;;;;;;;6.88;3.35;;;24.90;99.90;;;;;;5078813;28;20205;-78
2023/06/19 10:38:52;;;;;;;5.70;3.28;;;24.80;34.20;;;;;;5061291;28;20185;-79
2023/06/19 10:41:19;;;;;;;5.72;3.75;;;24.70;41.60;;;;;;5079447;28;20178;-79
2023/06/19 10:44:06;;;;;;;4.47;3.15;;;24.50;92.30;;;;;;5060530;28;20178;-79
2023/06/19 10:46:35;;;;;;;4.45;3.30;;;24.30;99.90;;;;;;5079464;28;20338;-78
2023/06/19 10:49:04;;;;;;;5.85;3.58;;;24.50;99.90;;;;;;5061042;28;20227;-78
2023/06/19 10:51:42;;;;;;;6.97;3.78;;;24.60;5.50;;;;;;5078702;28;20197;-78
2023/06/19 10:54:08;;;;;;;6.00;3.60;;;24.60;1.00;;;;;;5078690;28;20166;-79
2023/06/19 10:56:34;;;;;;;4.88;3.67;;;24.60;1.00;;;;;;5061282;28;20193;-79
2023/06/19 10:59:08;;;;;;;5.18;3.30;;;24.70;99.90;;;;;;5061385;28;20189;-79
2023/06/19 11:01:35;;;;;;;4.90;3.33;;;25.10;19.20;;;;;;5079705;28;20157;-78
2023/06/19 11:04:09;;;;;;;11.55;3.70;;;25.10;1.00;;;;;;5079604;28;20208;-79
2023/06/19 11:06:37;;;;;;;5.70;3.85;;;25.20;1.00;;;;;;5059485;28;20240;-76
2023/06/19 11:09:10;;;;;;;5.22;3.47;;;25.40;1.00;;;;;;5060098;28;20216;-79
2023/06/19 11:11:46;;;;;;;6.03;3.78;;;25.80;1.00;;;;;;5059448;28;20174;-78
2023/06/19 11:14:14;;;;;;;5.38;3.60;;;26.00;1.00;;;;;;5059297;28;20265;-79
2023/06/19 11:16:47;;;;;;;5.53;3.55;;;26.00;1.00;;;;;;5076879;28;20196;-78
2023/06/19 11:19:18;;;;;;;5.15;4.25;;;25.60;1.00;;;;;;5077103;28;20253;-78
2023/06/19 11:21:48;;;;;;;7.72;4.38;;;25.70;1.00;;;;;;5077373;28;20268;-78
2023/06/19 11:24:15;;;;;;;6.68;3.78;;;25.80;1.00;;;;;;5078350;28;20169;-78
2023/06/19 11:26:52;;;;;;;6.15;4.15;;;25.80;1.00;;;;;;5077469;28;20201;-78
2023/06/19 11:29:24;;;;;;;8.98;4.07;;;25.80;1.00;;;;;;5077858;28;20161;-79
2023/06/19 11:31:51;;;;;;;6.80;3.55;;;25.90;1.00;;;;;;5060010;28;20215;-78
2023/06/19 11:34:17;;;;;;;6.25;4.10;;;25.80;1.00;;;;;;5077444;28;20160;-79
2023/06/19 11:36:43;;;;;;;6.07;4.15;;;25.90;1.00;;;;;;5059231;28;20202;-77
2023/06/19 11:39:14;;;;;;;8.20;4.47;;;25.90;1.00;;;;;;5076438;28;20536;-76
2023/06/19 11:41:41;;;;;;;6.47;3.85;;;26.00;1.00;;;;;;5076515;28;20180;-76
2023/06/19 11:44:09;;;;;;;6.40;3.72;;;26.00;1.00;;;;;;5076487;28;20181;-76
2023/06/19 11:46:35;;;;;;;5.28;4.00;;;26.10;1.00;;;;;;5076182;28;20791;-77
2023/06/19 11:49:12;;;;;;;6.32;4.00;;;26.30;1.00;;;;;;5075871;28;20182;-75
2023/06/19 11:51:38;;;;;;;6.43;3.85;;;26.30;1.00;;;;;;5076563;28;20154;-76
2023/06/19 11:54:09;;;;;;;6.78;4.13;;;26.20;1.00;;;;;;5075681;28;20295;-76
2023/06/19 11:56:39;;;;;;;4.47;3.90;;;26.10;1.00;;;;;;5076038;28;20198;-75
2023/06/19 11:59:05;;;;;;;5.50;4.07;;;26.20;1.00;;;;;;5059788;28;20199;-76
2023/06/19 12:01:35;;;;;;;5.93;3.67;;;26.20;1.00;;;;;;5058622;28;20174;-75
2023/06/19 12:04:02;;;;;;;5.53;4.07;;;26.30;1.00;;;;;;5076160;28;20178;-76
2023/06/19 12:06:29;;;;;;;5.95;4.30;;;26.30;1.00;;;;;;5075947;28;20251;-75
2023/06/19 12:08:55;;;;;;;9.20;4.20;;;26.20;1.00;;;;;;5077069;28;20193;-76
2023/06/19 12:11:21;;;;;;;8.63;4.25;;;26.30;1.00;;;;;;5076839;28;20597;-76
2023/06/19 12:13:47;;;;;;;6.72;4.18;;;26.70;1.00;;;;;;5075500;28;20161;-76
2023/06/19 12:16:14;;;;;;;6.68;4.15;;;27.10;1.00;;;;;;5075343;28;20189;-78
2023/06/19 12:18:40;;;;;;;6.70;4.25;;;27.40;1.00;;;;;;5057768;28;20182;-76
2023/06/19 12:21:06;;;;;;;5.47;4.15;;;27.60;1.00;;;;;;5075280;28;20292;-76
2023/06/19 12:23:32;;;;;;;7.20;4.45;;;27.50;1.00;;;;;;5057790;28;20181;-77
2023/06/19 12:25:58;;;;;;;6.85;4.30;;;27.50;1.00;;;;;;5057400;28;20258;-76
2023/06/19 12:28:25;;;;;;;7.43;4.13;;;27.70;1.00;;;;;;5057101;28;20173;-75
2023/06/19 12:30:51;;;;;;;5.75;4.20;;;27.60;1.00;;;;;;5075283;28;20174;-76
2023/06/19 12:33:18;;;;;;;9.07;4.55;;;27.60;1.00;;;;;;5075241;28;20153;-76
2023/06/19 12:35:44;;;;;;;6.15;3.95;;;27.80;1.00;;;;;;5057471;28;20209;-77
2023/06/19 12:38:10;;;;;;;7.40;4.00;;;27.90;1.00;;;;;;5075318;28;20181;-76
2023/06/19 12:40:37;;;;;;;5.70;4.28;;;28.00;1.00;;;;;;5057516;28;20255;-75
2023/06/19 12:43:03;;;;;;;5.70;3.70;;;27.70;1.00;;;;;;5075323;28;20173;-75
2023/06/19 12:45:29;;;;;;;4.65;3.55;;;27.60;1.00;;;;;;5075536;28;20206;-78
2023/06/19 12:47:55;;;;;;;5.35;3.85;;;27.80;1.00;;;;;;5077611;28;20197;-79
2023/06/19 12:50:20;;;;;;;8.55;4.50;;;28.00;1.00;;;;;;5078412;28;20196;-76
2023/06/19 12:52:46;;;;;;;8.00;4.32;;;27.80;1.00;;;;;;5057505;28;20704;-76
2023/06/19 12:55:12;;;;;;;8.77;4.50;;;27.80;1.00;;;;;;5075201;28;20565;-75